createdAt,value
2022-08-28T00:01:26.656Z,12.70
2022-08-28T00:03:53.390Z,13.25
2022-08-28T00:06:20.118Z,12.32
2022-08-28T00:08:46.790Z,13.13
2022-08-28T00:11:13.445Z,13.45
2022-08-28T00:13:40.352Z,13.40
2022-08-28T00:16:07.399Z,13.32
2022-08-28T00:18:34.587Z,22.77
2022-08-28T00:21:01.654Z,16.33
2022-08-28T00:23:42.294Z,21.92
2022-08-28T00:26:09.335Z,15.27
2022-08-28T00:28:35.901Z,22.23
2022-08-28T00:31:02.753Z,14.40
2022-08-28T00:33:33.221Z,13.23
2022-08-28T00:36:01.096Z,13.32
2022-08-28T00:38:28.668Z,12.30
2022-08-28T00:41:01.143Z,12.05
2022-08-28T00:47:15.765Z,12.75
2022-08-28T00:49:49.449Z,11.45
2022-08-28T00:52:17.539Z,11.85
2022-08-28T00:54:58.410Z,11.40
2022-08-28T00:57:30.766Z,11.18
2022-08-28T00:59:58.193Z,11.75
2022-08-28T01:02:25.561Z,11.73
2022-08-28T01:04:52.331Z,10.93
2022-08-28T01:07:19.825Z,54.47
2022-08-28T01:09:51.093Z,11.20
2022-08-28T01:12:21.890Z,10.80
2022-08-28T01:14:51.057Z,11.63
2022-08-28T01:17:20.756Z,11.88
2022-08-28T01:19:57.968Z,11.63
2022-08-28T01:22:38.666Z,10.75
2022-08-28T01:25:14.415Z,12.50
2022-08-28T01:27:44.113Z,10.95
2022-08-28T01:30:16.997Z,11.85
2022-08-28T01:32:49.234Z,12.07
2022-08-28T01:35:20.278Z,12.32
2022-08-28T01:37:47.512Z,11.63
2022-08-28T01:40:18.133Z,11.85
2022-08-28T01:42:45.012Z,12.50
2022-08-28T01:45:15.749Z,11.90
2022-08-28T01:47:44.615Z,11.55
2022-08-28T01:50:15.074Z,11.25
2022-08-28T01:52:42.769Z,12.07
2022-08-28T01:55:10.836Z,11.57
2022-08-28T01:57:52.993Z,12.27
2022-08-28T02:00:20.602Z,12.55
2022-08-28T02:02:48.350Z,12.32
2022-08-28T02:05:15.295Z,13.02
2022-08-28T02:07:41.807Z,12.20
2022-08-28T02:10:11.956Z,12.73
2022-08-28T02:12:39.177Z,13.05
2022-08-28T02:15:07.798Z,14.57
2022-08-28T02:17:34.691Z,11.93
2022-08-28T02:20:01.602Z,13.20
2022-08-28T02:22:28.098Z,11.57
2022-08-28T02:24:54.600Z,11.52
2022-08-28T02:27:21.152Z,12.10
2022-08-28T02:29:48.522Z,11.75
2022-08-28T02:32:15.158Z,12.13
2022-08-28T02:34:43.549Z,11.75
2022-08-28T02:37:13.249Z,11.80
2022-08-28T02:39:40.004Z,11.68
2022-08-28T02:42:07.278Z,12.35
2022-08-28T02:44:34.978Z,12.52
2022-08-28T02:47:01.628Z,12.18
2022-08-28T02:49:33.053Z,12.73
2022-08-28T02:52:04.140Z,12.93
2022-08-28T02:54:31.185Z,12.07
2022-08-28T02:56:58.634Z,12.02
2022-08-28T02:59:25.405Z,12.23
2022-08-28T03:01:52.062Z,11.75
2022-08-28T03:04:18.955Z,13.02
2022-08-28T03:06:45.720Z,12.68
2022-08-28T03:09:12.308Z,13.43
2022-08-28T03:11:41.213Z,13.18
2022-08-28T03:14:07.938Z,13.20
2022-08-28T03:16:34.441Z,12.68
2022-08-28T03:19:01.033Z,13.70
2022-08-28T03:21:27.575Z,12.05
2022-08-28T03:23:54.213Z,11.93
2022-08-28T03:26:20.837Z,12.15
2022-08-28T03:28:52.491Z,13.00
2022-08-28T03:31:23.565Z,13.00
2022-08-28T03:33:51.467Z,12.43
2022-08-28T03:36:23.873Z,12.82
2022-08-28T03:38:52.503Z,11.50
2022-08-28T03:41:23.201Z,12.30
2022-08-28T03:43:50.767Z,11.35
2022-08-28T03:46:21.191Z,10.82
2022-08-28T03:48:48.026Z,11.75
2022-08-28T03:51:19.870Z,11.75
2022-08-28T03:53:52.742Z,12.65
2022-08-28T03:56:22.786Z,11.98
2022-08-28T03:58:52.784Z,12.57
2022-08-28T04:01:20.668Z,12.32
2022-08-28T04:03:47.940Z,12.93
2022-08-28T04:06:14.885Z,12.48
2022-08-28T04:08:41.767Z,12.52
2022-08-28T04:11:08.472Z,12.50
2022-08-28T04:13:35.379Z,12.55
2022-08-28T04:16:06.458Z,12.35
2022-08-28T04:18:33.463Z,12.40
2022-08-28T04:21:07.995Z,12.80
2022-08-28T04:23:39.053Z,11.90
2022-08-28T04:26:07.517Z,11.35
2022-08-28T04:28:35.079Z,11.57
2022-08-28T04:31:02.619Z,11.50
2022-08-28T04:33:29.770Z,11.93
2022-08-28T04:35:57.047Z,11.95
2022-08-28T04:38:24.294Z,12.02
2022-08-28T04:40:50.824Z,11.93
2022-08-28T04:43:17.382Z,11.65
2022-08-28T04:45:45.560Z,12.00
2022-08-28T04:48:14.211Z,11.20
2022-08-28T04:50:44.596Z,11.75
2022-08-28T04:53:11.785Z,12.70
2022-08-28T04:55:54.646Z,11.73
2022-08-28T04:58:23.905Z,11.90
2022-08-28T05:10:32.458Z,11.80
2022-08-28T05:13:12.224Z,12.35
2022-08-28T05:15:42.898Z,11.57
2022-08-28T05:18:20.605Z,11.38
2022-08-28T05:23:35.102Z,11.63
2022-08-28T05:28:57.873Z,11.52
2022-08-28T05:34:08.573Z,11.23
2022-08-28T05:36:42.043Z,11.88
2022-08-28T05:39:16.299Z,11.27
2022-08-28T05:41:46.984Z,11.45
2022-08-28T05:54:52.919Z,10.48
2022-08-28T05:57:24.896Z,10.40
2022-08-28T06:05:21.263Z,10.38
2022-08-28T06:23:55.154Z,10.48
2022-08-28T06:30:09.630Z,9.93
2022-08-28T06:32:51.159Z,9.50
2022-08-28T06:35:26.781Z,11.02
2022-08-28T06:37:59.800Z,10.32
2022-08-28T06:40:34.449Z,10.43
2022-08-28T06:43:01.427Z,10.00
2022-08-28T06:45:32.824Z,9.95
2022-08-28T06:48:03.622Z,10.10
2022-08-28T06:50:35.577Z,9.88
2022-08-28T06:53:04.687Z,9.35
2022-08-28T06:55:31.470Z,9.75
2022-08-28T06:57:59.878Z,9.55
2022-08-28T07:00:26.473Z,9.38
2022-08-28T07:02:53.160Z,9.95
2022-08-28T07:05:19.838Z,9.65
2022-08-28T07:07:46.409Z,12.10
2022-08-28T07:10:13.082Z,9.07
2022-08-28T07:12:40.762Z,10.05
2022-08-28T07:15:08.209Z,9.57
2022-08-28T07:17:36.110Z,9.13
2022-08-28T07:20:09.942Z,9.60
2022-08-28T07:22:36.531Z,9.15
2022-08-28T07:25:04.755Z,8.65
2022-08-28T07:27:31.533Z,8.70
2022-08-28T07:29:58.701Z,8.93
2022-08-28T07:32:25.418Z,8.77
2022-08-28T07:34:52.124Z,9.05
2022-08-28T07:37:19.153Z,9.00
2022-08-28T07:39:46.013Z,9.13
2022-08-28T07:42:35.569Z,8.77
2022-08-28T07:45:02.906Z,9.63
2022-08-28T07:47:31.674Z,9.55
2022-08-28T07:50:03.552Z,9.80
2022-08-28T07:52:30.197Z,9.45
2022-08-28T07:54:57.416Z,9.82
2022-08-28T07:57:24.020Z,9.85
2022-08-28T07:59:52.368Z,9.05
2022-08-28T08:02:18.948Z,9.07
2022-08-28T08:04:45.660Z,8.98
2022-08-28T08:07:12.937Z,9.73
2022-08-28T08:09:41.557Z,8.25
2022-08-28T08:12:10.348Z,8.07
2022-08-28T08:14:39.049Z,8.73
2022-08-28T08:17:07.303Z,8.35
2022-08-28T08:19:35.370Z,7.40
2022-08-28T08:22:02.319Z,7.93
2022-08-28T08:24:30.388Z,8.10
2022-08-28T08:27:00.936Z,7.47
2022-08-28T08:29:35.391Z,8.57
2022-08-28T08:32:07.162Z,7.63
2022-08-28T08:34:36.652Z,7.60
2022-08-28T08:37:03.567Z,7.25
2022-08-28T08:39:31.838Z,7.18
2022-08-28T08:42:00.713Z,6.93
2022-08-28T08:44:41.287Z,7.20
2022-08-28T08:47:25.028Z,7.40
2022-08-28T08:50:09.471Z,7.88
2022-08-28T08:52:58.912Z,6.72
2022-08-28T08:55:35.853Z,7.72
2022-08-28T08:58:11.369Z,7.03
2022-08-28T09:00:50.799Z,6.85
2022-08-28T09:03:25.397Z,7.10
2022-08-28T09:06:02.250Z,6.47
2022-08-28T09:11:22.338Z,6.95
2022-08-28T09:13:56.286Z,6.47
2022-08-28T09:16:29.878Z,6.80
2022-08-28T09:18:58.214Z,6.38
2022-08-28T09:21:33.646Z,6.30
2022-08-28T09:24:19.360Z,6.45
2022-08-28T09:26:57.639Z,6.72
2022-08-28T09:29:31.717Z,6.65
2022-08-28T09:31:58.906Z,7.15
2022-08-28T09:34:36.703Z,6.90
2022-08-28T09:37:08.480Z,6.60
2022-08-28T09:39:38.077Z,6.07
2022-08-28T09:42:32.934Z,6.43
2022-08-28T09:45:09.457Z,5.85
2022-08-28T09:50:32.644Z,6.32
2022-08-28T09:53:14.321Z,6.90
2022-08-28T09:55:55.400Z,6.43
2022-08-28T09:58:23.576Z,6.55
2022-08-28T10:01:01.974Z,6.05
2022-08-28T10:03:36.981Z,5.85
2022-08-28T10:06:11.093Z,6.15
2022-08-28T10:09:01.570Z,6.25
2022-08-28T10:11:42.587Z,6.15
2022-08-28T10:14:42.061Z,6.43
2022-08-28T10:17:23.839Z,5.88
2022-08-28T10:19:59.562Z,6.28
2022-08-28T10:22:29.158Z,5.90
2022-08-28T10:25:08.972Z,6.18
2022-08-28T10:27:44.849Z,6.10
2022-08-28T10:30:22.930Z,6.93
2022-08-28T10:33:23.767Z,6.70
2022-08-28T10:36:02.737Z,6.72
2022-08-28T10:38:40.322Z,6.88
2022-08-28T10:41:27.272Z,6.60
2022-08-28T10:43:57.269Z,7.50
2022-08-28T10:46:33.788Z,6.53
2022-08-28T10:49:44.260Z,6.53
2022-08-28T10:52:23.153Z,7.50
2022-08-28T10:54:57.660Z,6.55
2022-08-28T10:57:40.100Z,6.90
2022-08-28T11:00:12.507Z,7.20
2022-08-28T11:02:44.422Z,7.38
2022-08-28T11:05:11.924Z,6.72
2022-08-28T11:07:47.896Z,6.47
2022-08-28T11:10:20.141Z,6.63
2022-08-28T11:12:48.314Z,6.70
2022-08-28T11:15:34.194Z,8.07
2022-08-28T11:18:20.936Z,6.35
2022-08-28T11:21:16.718Z,6.53
2022-08-28T11:23:52.790Z,6.65
2022-08-28T11:26:48.841Z,7.20
2022-08-28T11:30:03.627Z,7.03
2022-08-28T11:32:51.616Z,7.28
2022-08-28T11:35:30.234Z,6.85
2022-08-28T11:37:58.537Z,8.10
2022-08-28T11:40:28.197Z,7.03
2022-08-28T11:43:16.972Z,6.75
2022-08-28T11:45:46.537Z,6.78
2022-08-28T11:48:25.911Z,7.28
2022-08-28T11:51:03.668Z,6.50
2022-08-28T11:54:07.010Z,6.97
2022-08-28T11:57:11.633Z,6.25
2022-08-28T11:59:38.206Z,7.10
2022-08-28T12:02:49.624Z,5.78
2022-08-28T12:05:16.319Z,6.10
2022-08-28T12:07:45.055Z,6.03
2022-08-28T12:10:20.907Z,6.72
2022-08-28T12:12:52.833Z,6.05
2022-08-28T12:15:28.664Z,5.97
2022-08-28T12:17:58.470Z,6.20
2022-08-28T12:20:29.513Z,6.13
2022-08-28T12:22:59.739Z,5.97
2022-08-28T12:28:28.724Z,5.95
2022-08-28T12:34:00.744Z,5.13
2022-08-28T12:36:28.803Z,5.40
2022-08-28T12:38:58.233Z,5.55
2022-08-28T12:41:25.593Z,5.18
2022-08-28T12:43:58.205Z,5.60
2022-08-28T12:46:37.705Z,5.95
2022-08-28T12:49:25.148Z,5.15
2022-08-28T12:52:06.618Z,5.70
2022-08-28T12:54:33.324Z,5.70
2022-08-28T12:57:00.069Z,5.18
2022-08-28T12:59:36.688Z,6.53
2022-08-28T13:02:12.498Z,5.32
2022-08-28T13:04:56.055Z,5.63
2022-08-28T13:07:35.419Z,5.30
2022-08-28T13:10:19.237Z,4.78
2022-08-28T13:12:56.086Z,5.20
2022-08-28T13:16:01.416Z,5.00
2022-08-28T13:18:56.477Z,4.40
2022-08-28T13:21:33.858Z,5.00
2022-08-28T13:24:28.151Z,4.68
2022-08-28T13:27:50.521Z,5.15
2022-08-28T13:39:36.881Z,5.03
2022-08-28T13:48:49.066Z,6.80
2022-08-28T14:08:00.397Z,4.80
2022-08-28T14:18:47.703Z,5.53
2022-08-28T14:25:52.434Z,5.55
2022-08-28T14:28:19.402Z,5.63
2022-08-28T14:30:48.658Z,5.68
2022-08-28T14:33:18.684Z,5.63
2022-08-28T14:35:50.132Z,5.28
2022-08-28T14:38:17.181Z,5.45
2022-08-28T14:40:44.850Z,5.72
2022-08-28T14:43:13.715Z,6.15
2022-08-28T14:45:50.248Z,6.70
2022-08-28T14:48:19.010Z,5.85
2022-08-28T14:50:48.058Z,5.38
2022-08-28T14:53:15.947Z,6.03
2022-08-28T14:55:48.621Z,6.95
2022-08-28T14:58:17.849Z,5.90
2022-08-28T15:00:50.101Z,5.63
2022-08-28T15:03:18.703Z,5.57
2022-08-28T15:05:46.074Z,5.70
2022-08-28T15:08:16.882Z,5.22
2022-08-28T15:10:44.344Z,5.57
2022-08-28T15:13:11.544Z,5.25
2022-08-28T15:15:41.215Z,5.35
2022-08-28T15:18:10.266Z,5.18
2022-08-28T15:20:46.895Z,4.95
2022-08-28T15:23:15.349Z,5.05
2022-08-28T15:25:42.383Z,4.63
2022-08-28T15:28:09.830Z,4.43
2022-08-28T15:30:37.606Z,5.47
2022-08-28T15:33:04.950Z,5.00
2022-08-28T15:35:33.890Z,5.07
2022-08-28T15:38:00.584Z,4.97
2022-08-28T15:40:45.861Z,5.18
2022-08-28T15:43:12.656Z,5.47
2022-08-28T15:45:41.233Z,5.53
2022-08-28T15:48:10.829Z,5.35
2022-08-28T15:50:38.571Z,5.28
2022-08-28T15:53:06.695Z,5.13
2022-08-28T15:55:36.703Z,5.25
2022-08-28T15:58:04.655Z,5.25
2022-08-28T16:00:40.755Z,5.28
2022-08-28T16:03:07.406Z,5.22
2022-08-28T16:05:40.616Z,5.68
2022-08-28T16:08:51.749Z,5.40
2022-08-28T16:11:59.290Z,5.10
2022-08-28T16:14:47.378Z,4.78
2022-08-28T16:17:45.009Z,5.85
2022-08-28T16:20:19.529Z,5.63
2022-08-28T16:22:54.052Z,5.68
2022-08-28T16:25:28.370Z,5.53
2022-08-28T16:28:16.232Z,5.43
2022-08-28T16:30:49.728Z,5.55
2022-08-28T16:33:22.195Z,5.32
2022-08-28T16:38:59.731Z,5.47
2022-08-28T16:41:32.315Z,5.25
2022-08-28T16:43:59.327Z,5.38
2022-08-28T16:46:44.390Z,5.97
2022-08-28T16:49:41.694Z,5.90
2022-08-28T16:52:08.332Z,5.15
2022-08-28T16:55:17.105Z,6.03
2022-08-28T16:57:44.077Z,5.88
2022-08-28T17:00:15.533Z,6.03
2022-08-28T17:02:43.683Z,7.13
2022-08-28T17:05:15.321Z,5.97
2022-08-28T17:08:02.191Z,5.55
2022-08-28T17:10:29.114Z,5.90
2022-08-28T17:12:56.669Z,5.78
2022-08-28T17:15:29.193Z,5.57
2022-08-28T17:17:56.489Z,5.97
2022-08-28T17:20:41.746Z,5.90
2022-08-28T17:23:08.384Z,5.70
2022-08-28T17:25:35.007Z,5.93
2022-08-28T17:28:04.473Z,5.93
2022-08-28T17:30:31.028Z,5.82
2022-08-28T17:33:04.678Z,5.80
2022-08-28T17:35:31.748Z,5.68
2022-08-28T17:38:08.336Z,5.82
2022-08-28T17:40:35.101Z,5.85
2022-08-28T17:43:02.864Z,5.72
2022-08-28T17:45:29.863Z,5.57
2022-08-28T17:48:08.782Z,5.57
2022-08-28T17:51:09.168Z,5.50
2022-08-28T18:09:38.855Z,5.40
2022-08-28T18:12:55.665Z,6.43
2022-08-28T18:23:35.638Z,6.97
2022-08-28T18:27:02.409Z,6.53
2022-08-28T18:29:49.384Z,6.40
2022-08-28T18:32:58.402Z,6.35
2022-08-28T18:42:27.681Z,6.78
2022-08-28T18:45:43.451Z,7.05
2022-08-28T18:48:10.228Z,6.65
2022-08-28T18:51:03.406Z,7.00
2022-08-28T18:53:53.436Z,7.05
2022-08-28T18:56:24.335Z,6.82
2022-08-28T18:58:57.100Z,7.18
2022-08-28T19:01:24.418Z,7.68
2022-08-28T19:03:51.114Z,6.95
2022-08-28T19:06:17.905Z,8.15
2022-08-28T19:08:45.905Z,8.63
2022-08-28T19:11:14.037Z,7.40
2022-08-28T19:13:42.009Z,12.00
2022-08-28T19:16:09.649Z,7.68
2022-08-28T19:18:36.417Z,7.28
2022-08-28T19:21:10.222Z,7.65
2022-08-28T19:23:42.109Z,8.15
2022-08-28T19:26:22.112Z,8.13
2022-08-28T19:28:50.558Z,7.80
2022-08-28T19:31:17.949Z,12.68
2022-08-28T19:33:46.480Z,10.57
2022-08-28T19:36:13.929Z,9.40
2022-08-28T19:38:41.761Z,8.18
2022-08-28T19:41:10.244Z,7.20
2022-08-28T19:43:42.870Z,7.18
2022-08-28T19:46:19.541Z,6.85
2022-08-28T19:48:50.569Z,6.70
2022-08-28T19:51:23.434Z,7.13
2022-08-28T19:53:58.469Z,7.57
2022-08-28T19:56:28.143Z,6.80
2022-08-28T19:58:58.903Z,8.18
2022-08-28T20:01:30.416Z,9.00
2022-08-28T20:03:58.585Z,14.23
2022-08-28T20:06:25.625Z,11.18
2022-08-28T20:08:52.238Z,13.50
2022-08-28T20:11:24.812Z,7.93
2022-08-28T20:13:56.590Z,8.40
2022-08-28T20:16:27.576Z,8.73
2022-08-28T20:18:55.716Z,8.68
2022-08-28T20:21:36.741Z,7.18
2022-08-28T20:24:07.329Z,7.90
2022-08-28T20:26:34.020Z,8.63
2022-08-28T20:29:00.669Z,11.85
2022-08-28T20:31:27.462Z,17.00
2022-08-28T20:33:54.314Z,10.95
2022-08-28T20:36:21.537Z,8.25
2022-08-28T20:38:48.284Z,18.48
2022-08-28T20:41:18.235Z,8.98
2022-08-28T20:43:46.317Z,15.02
2022-08-28T20:46:16.596Z,15.20
2022-08-28T20:48:44.041Z,16.20
2022-08-28T20:51:11.382Z,31.48
2022-08-28T20:53:38.719Z,13.70
2022-08-28T20:56:08.439Z,8.18
2022-08-28T20:58:36.012Z,8.80
2022-08-28T21:01:02.850Z,8.65
2022-08-28T21:03:32.549Z,7.68
2022-08-28T21:05:59.369Z,8.10
2022-08-28T21:08:26.140Z,9.32
2022-08-28T21:10:52.827Z,10.20
2022-08-28T21:13:19.702Z,10.63
2022-08-28T21:15:46.425Z,9.15
2022-08-28T21:18:13.865Z,9.23
2022-08-28T21:20:40.937Z,8.95
2022-08-28T21:23:08.839Z,8.88
2022-08-28T21:25:38.444Z,8.90
2022-08-28T21:28:06.725Z,9.13
2022-08-28T21:30:34.273Z,8.88
2022-08-28T21:33:01.146Z,8.88
2022-08-28T21:35:27.802Z,8.88
2022-08-28T21:37:54.471Z,10.57
2022-08-28T21:40:21.178Z,9.25
2022-08-28T21:42:50.232Z,8.93
2022-08-28T21:45:16.878Z,8.50
2022-08-28T21:47:43.849Z,8.60
2022-08-28T21:50:10.883Z,9.27
2022-08-28T21:52:37.586Z,8.70
2022-08-28T21:55:09.396Z,8.45
2022-08-28T21:57:36.510Z,8.32
2022-08-28T22:00:07.431Z,7.90
2022-08-28T22:02:34.574Z,7.68
2022-08-28T22:05:01.298Z,8.25
2022-08-28T22:07:27.976Z,8.10
2022-08-28T22:09:54.681Z,7.63
2022-08-28T22:12:21.452Z,8.68
2022-08-28T22:14:48.290Z,8.18
2022-08-28T22:17:15.322Z,8.38
2022-08-28T22:19:42.168Z,8.82
2022-08-28T22:22:31.542Z,8.00
2022-08-28T22:24:58.639Z,8.07
2022-08-28T22:27:25.339Z,9.30
2022-08-28T22:29:51.896Z,7.82
2022-08-28T22:32:18.707Z,10.88
2022-08-28T22:34:46.174Z,12.38
2022-08-28T22:37:13.633Z,7.90
2022-08-28T22:39:41.700Z,7.82
2022-08-28T22:42:09.796Z,11.18
2022-08-28T22:44:37.351Z,10.95
2022-08-28T22:47:04.900Z,10.95
2022-08-28T22:49:31.701Z,11.13
2022-08-28T22:51:58.404Z,9.88
2022-08-28T22:54:26.135Z,9.55
2022-08-28T22:56:52.769Z,9.50
2022-08-28T22:59:19.455Z,10.15
2022-08-28T23:01:46.385Z,10.15
2022-08-28T23:04:13.048Z,11.30
2022-08-28T23:06:40.265Z,10.10
2022-08-28T23:09:08.361Z,9.93
2022-08-28T23:11:36.422Z,10.30
2022-08-28T23:14:05.440Z,9.57
2022-08-28T23:16:32.465Z,10.05
2022-08-28T23:19:07.874Z,9.05
2022-08-28T23:21:40.964Z,9.18
2022-08-28T23:24:13.063Z,8.90
2022-08-28T23:26:39.739Z,9.35
2022-08-28T23:29:06.382Z,9.30
2022-08-28T23:31:33.049Z,9.25
2022-08-28T23:33:59.801Z,9.27
2022-08-28T23:36:26.532Z,9.07
2022-08-28T23:38:53.436Z,9.85
2022-08-28T23:41:20.065Z,9.70
2022-08-28T23:43:47.172Z,9.98
2022-08-28T23:46:16.281Z,10.23
2022-08-28T23:48:43.425Z,9.70
2022-08-28T23:51:13.845Z,9.80
2022-08-28T23:53:42.897Z,9.73
2022-08-28T23:56:09.728Z,10.50
2022-08-28T23:58:36.409Z,9.75
